Time;durP1;ratioP1;P1;durP2;ratioP2;P2;SDS_P1;SDS_P2;PMS_P1;PMS_P2;Temp;Humidity;BMP_temperature;BMP_pressure;BME280_temperature;BME280_humidity;BME280_pressure;Samples;Min_cycle;Max_cycle;Signal;HPM_P1;HPM_P2
2021/08/27 00:00:19;;;;;;;;;;;;;;;12.37;77.41;96699.84;30001;986;1876;-66
2021/08/27 00:00:50;;;;;;;;;;;;;;;12.36;77.47;96702.88;30001;983;1883;-66
2021/08/27 00:01:21;;;;;;;;;;;;;;;12.33;77.77;96706.22;30001;983;1879;-65
2021/08/27 00:01:52;;;;;;;;;;;;;;;12.32;77.86;96710.06;30001;983;1884;-66
2021/08/27 00:02:23;;;;;;;;;;;;;;;12.31;77.90;96708.44;30001;983;1879;-65
2021/08/27 00:02:54;;;;;;;;;;;;;;;12.29;77.98;96703.31;30001;983;1866;-66
2021/08/27 00:03:25;;;;;;;;;;;;;;;12.29;78.55;96706.03;30001;983;1875;-66
2021/08/27 00:03:55;;;;;;;;;;;;;;;12.29;78.45;96702.50;30001;983;1884;-66
2021/08/27 00:04:27;;;;;;;;;;;;;;;12.27;78.16;96707.44;30001;983;1880;-66
2021/08/27 00:04:58;;;;;;;;;;;;;;;12.26;78.40;96701.22;30001;983;1884;-59
2021/08/27 00:05:29;;;;;;;;;;;;;;;12.27;77.96;96704.72;30001;983;1879;-64
2021/08/27 00:05:59;;;;;;;;;;;;;;;12.26;78.20;96708.56;30001;982;1884;-66
2021/08/27 00:06:31;;;;;;;;;;;;;;;12.26;77.89;96708.56;30001;982;1880;-66
2021/08/27 00:07:02;;;;;;;;;;;;;;;12.25;78.13;96706.94;30001;982;1884;-66
2021/08/27 00:07:33;;;;;;;;;;;;;;;12.25;78.05;96699.59;30001;982;1880;-64
2021/08/27 00:08:04;;;;;;;;;;;;;;;12.25;77.92;96707.75;30001;983;1866;-65
2021/08/27 00:08:35;;;;;;;;;;;;;;;12.25;78.08;96701.50;30001;983;1875;-67
2021/08/27 00:09:06;;;;;;;;;;;;;;;12.24;78.30;96705.34;30001;983;1884;-66
2021/08/27 00:09:37;;;;;;;;;;;;;;;12.25;77.90;96701.50;30001;983;1879;-65
2021/08/27 00:10:08;;;;;;;;;;;;;;;12.27;77.92;96707.44;30001;983;1884;-65
2021/08/27 00:10:39;;;;;;;;;;;;;;;12.26;77.93;96708.56;30001;983;1879;-65
2021/08/27 00:11:10;;;;;;;;;;;;;;;12.27;78.06;96704.72;30001;983;1884;-65
2021/08/27 00:11:41;;;;;;;;;;;;;;;12.27;77.88;96704.72;30001;983;1880;-58
2021/08/27 00:12:12;;;;;;;;;;;;;;;12.26;77.89;96706.66;30001;982;1867;-65
2021/08/27 00:12:43;;;;;;;;;;;;;;;12.26;78.03;96698.47;30001;982;1858;-65
2021/08/27 00:13:14;;;;;;;;;;;;;;;12.27;78.15;96702.00;30001;982;1884;-65
2021/08/27 00:13:45;;;;;;;;;;;;;;;12.26;78.02;96693.03;30001;982;1880;-65
2021/08/27 00:14:16;;;;;;;;;;;;;;;12.28;77.84;96700.91;30001;982;1884;-65
2021/08/27 00:14:47;;;;;;;;;;;;;;;12.27;77.98;96704.72;30001;982;1880;-65
2021/08/27 00:15:18;;;;;;;;;;;;;;;12.26;78.16;96697.69;30001;982;1884;-66
2021/08/27 00:15:49;;;;;;;;;;;;;;;12.27;78.11;96702.00;30001;983;1862;-66
2021/08/27 00:16:20;;;;;;;;;;;;;;;12.25;78.38;96702.31;30001;983;1879;-66
2021/08/27 00:16:51;;;;;;;;;;;;;;;12.25;78.09;96696.06;30001;983;1879;-66
2021/08/27 00:17:29;;;;;;;;;;;;;;;12.24;78.30;96700.72;30001;983;1884;-65
2021/08/27 00:18:00;;;;;;;;;;;;;;;12.25;78.46;96706.94;30001;983;1862;-65
2021/08/27 00:18:31;;;;;;;;;;;;;;;12.25;78.29;96696.06;30001;983;1880;-65
2021/08/27 00:19:02;;;;;;;;;;;;;;;12.24;78.28;96695.28;30001;983;1880;-65
2021/08/27 00:19:32;;;;;;;;;;;;;;;12.25;78.52;96706.94;30001;983;1884;-65
2021/08/27 00:20:05;;;;;;;;;;;;;;;12.24;78.11;96689.81;30001;982;1880;-65
2021/08/27 00:20:38;;;;;;;;;;;;;;;12.24;78.36;96699.91;30001;982;1884;-64
2021/08/27 00:21:09;;;;;;;;;;;;;;;12.24;78.12;96700.72;30001;982;1880;-65
2021/08/27 00:21:40;;;;;;;;;;;;;;;12.25;78.44;96696.06;30001;982;1884;-66
2021/08/27 00:22:10;;;;;;;;;;;;;;;12.25;78.18;96696.88;30001;982;1880;-66
2021/08/27 00:22:41;;;;;;;;;;;;;;;12.27;78.16;96696.56;30001;977;1884;-65
2021/08/27 00:23:12;;;;;;;;;;;;;;;12.27;78.56;96704.72;30001;983;1875;-65
2021/08/27 00:23:43;;;;;;;;;;;;;;;12.26;78.57;96700.41;30001;983;1884;-66
2021/08/27 00:24:14;;;;;;;;;;;;;;;12.25;78.20;96696.06;30001;983;1879;-64
2021/08/27 00:24:45;;;;;;;;;;;;;;;12.24;78.25;96695.28;30001;983;1884;-65
2021/08/27 00:25:16;;;;;;;;;;;;;;;12.25;78.38;96698.78;30001;983;1879;-64
2021/08/27 00:25:47;;;;;;;;;;;;;;;12.24;78.58;96699.91;30001;983;1884;-63
2021/08/27 00:26:17;;;;;;;;;;;;;;;12.25;78.24;96698.78;30001;983;1880;-64
2021/08/27 00:26:48;;;;;;;;;;;;;;;12.26;78.49;96700.41;30001;983;1884;-65
2021/08/27 00:27:19;;;;;;;;;;;;;;;12.27;78.33;96702.00;30001;982;1880;-64
2021/08/27 00:27:50;;;;;;;;;;;;;;;12.27;78.22;96702.81;30001;982;1867;-63
2021/08/27 00:28:21;;;;;;;;;;;;;;;12.27;78.56;96700.09;30001;982;1876;-62
2021/08/27 00:28:52;;;;;;;;;;;;;;;12.27;78.17;96699.28;30001;982;1884;-65
2021/08/27 00:29:22;;;;;;;;;;;;;;;12.28;78.22;96700.91;30001;982;1880;-64
2021/08/27 00:29:53;;;;;;;;;;;;;;;12.28;78.49;96700.91;30001;982;1884;-65
2021/08/27 00:30:24;;;;;;;;;;;;;;;12.27;78.50;96705.53;30001;982;1880;-64
2021/08/27 00:30:57;;;;;;;;;;;;;;;12.28;78.44;96700.91;30001;983;1884;-65
2021/08/27 00:31:29;;;;;;;;;;;;;;;12.27;78.33;96705.53;30001;983;1879;-57
2021/08/27 00:32:00;;;;;;;;;;;;;;;12.29;78.53;96702.50;30001;983;1884;-63
2021/08/27 00:32:30;;;;;;;;;;;;;;;12.28;78.25;96695.47;30001;983;1879;-65
2021/08/27 00:33:01;;;;;;;;;;;;;;;12.29;78.20;96702.50;30001;983;1866;-66
2021/08/27 00:33:32;;;;;;;;;;;;;;;12.29;78.46;96710.66;30001;983;1875;-60
2021/08/27 00:34:03;;;;;;;;;;;;;;;12.28;78.03;96706.34;30001;983;1884;-59
2021/08/27 00:34:34;;;;;;;;;;;;;;;12.28;78.20;96706.34;30001;983;1880;-58
2021/08/27 00:35:05;;;;;;;;;;;;;;;12.28;78.56;96700.91;30001;982;1884;-64
2021/08/27 00:35:36;;;;;;;;;;;;;;;12.28;78.42;96709.06;30001;982;1880;-59
2021/08/27 00:36:07;;;;;;;;;;;;;;;12.28;78.57;96707.16;30001;982;1884;-66
2021/08/27 00:36:37;;;;;;;;;;;;;;;12.28;78.23;96709.06;30001;982;1880;-65
2021/08/27 00:37:08;;;;;;;;;;;;;;;12.28;78.49;96709.06;30001;982;1884;-65
2021/08/27 00:37:39;;;;;;;;;;;;;;;12.28;78.37;96700.91;30001;982;1880;-66
2021/08/27 00:38:14;;;;;;;;;;;;;;;12.29;78.45;96707.94;30001;982;1867;-65
2021/08/27 00:38:45;;;;;;;;;;;;;;;12.28;78.58;96706.34;30001;983;1875;-63
2021/08/27 00:39:16;;;;;;;;;;;;;;;12.28;78.48;96706.34;30001;983;1866;-65
2021/08/27 00:39:47;;;;;;;;;;;;;;;12.28;78.63;96707.16;30001;983;1875;-66
2021/08/27 00:40:18;;;;;;;;;;;;;;;12.27;78.40;96704.72;30001;983;1884;-66
2021/08/27 00:40:49;;;;;;;;;;;;;;;12.27;78.56;96705.53;30001;983;1880;-63
2021/08/27 00:41:20;;;;;;;;;;;;;;;12.27;78.69;96705.53;30001;983;1884;-66
2021/08/27 00:41:51;;;;;;;;;;;;;;;12.27;78.48;96694.66;30001;983;1880;-66
2021/08/27 00:42:22;;;;;;;;;;;;;;;12.28;78.76;96701.69;30001;983;1866;-59
2021/08/27 00:42:52;;;;;;;;;;;;;;;12.28;78.91;96700.91;30001;982;1875;-65
2021/08/27 00:43:26;;;;;;;;;;;;;;;12.28;79.03;96700.91;30001;982;1884;-65
2021/08/27 00:43:57;;;;;;;;;;;;;;;12.28;78.99;96706.34;30001;982;1862;-65
2021/08/27 00:44:28;;;;;;;;;;;;;;;12.27;79.12;96704.72;30001;982;1880;-65
2021/08/27 00:44:59;;;;;;;;;;;;;;;12.28;79.07;96709.06;30001;983;1879;-66
2021/08/27 00:45:30;;;;;;;;;;;;;;;12.28;79.06;96703.63;30001;983;1883;-65
2021/08/27 00:46:01;;;;;;;;;;;;;;;12.28;79.06;96709.06;30001;983;1879;-67
2021/08/27 00:46:31;;;;;;;;;;;;;;;12.28;79.09;96706.34;30001;983;1883;-64
2021/08/27 00:47:03;;;;;;;;;;;;;;;12.28;79.10;96706.34;30001;983;1879;-65
2021/08/27 00:47:34;;;;;;;;;;;;;;;12.29;79.14;96710.66;30001;983;1884;-66
2021/08/27 00:48:05;;;;;;;;;;;;;;;12.29;79.70;96710.66;30001;983;1862;-66
2021/08/27 00:48:36;;;;;;;;;;;;;;;12.29;79.21;96707.94;30001;983;1862;-65
2021/08/27 00:49:06;;;;;;;;;;;;;;;12.28;79.41;96698.97;30001;983;1880;-67
2021/08/27 00:49:37;;;;;;;;;;;;;;;12.28;79.43;96706.34;30001;983;1884;-65
2021/08/27 00:50:09;;;;;;;;;;;;;;;12.27;79.16;96710.97;30001;982;1880;-59
2021/08/27 00:50:41;;;;;;;;;;;;;;;12.28;79.49;96703.63;30001;982;1884;-64
2021/08/27 00:51:11;;;;;;;;;;;;;;;12.26;79.27;96703.13;30001;982;1880;-67
2021/08/27 00:51:43;;;;;;;;;;;;;;;12.26;79.25;96708.56;30001;982;1884;-65
2021/08/27 00:52:14;;;;;;;;;;;;;;;12.25;79.12;96709.66;30001;984;1871;-65
2021/08/27 00:52:45;;;;;;;;;;;;;;;12.27;79.44;96710.16;30001;983;1883;-65
2021/08/27 00:53:16;;;;;;;;;;;;;;;12.27;79.29;96705.53;30001;987;1849;-64
2021/08/27 00:53:47;;;;;;;;;;;;;;;12.29;79.12;96708.75;30001;983;1875;-65
2021/08/27 00:54:18;;;;;;;;;;;;;;;12.31;79.06;96705.72;30001;983;1857;-64
2021/08/27 00:54:50;;;;;;;;;;;;;;;12.29;78.76;96706.03;30001;983;1875;-65
2021/08/27 00:55:21;;;;;;;;;;;;;;;12.29;79.00;96714.19;30001;983;1875;-66
2021/08/27 00:55:52;;;;;;;;;;;;;;;12.29;79.41;96708.75;30001;983;1880;-66
2021/08/27 00:56:23;;;;;;;;;;;;;;;12.28;79.61;96711.78;30001;983;1875;-66
2021/08/27 00:56:54;;;;;;;;;;;;;;;12.28;79.51;96711.78;30001;983;1862;-65
2021/08/27 00:57:28;;;;;;;;;;;;;;;12.27;79.60;96715.63;30001;983;1871;-65
2021/08/27 00:57:59;;;;;;;;;;;;;;;12.28;79.76;96706.34;30001;982;1880;-65
2021/08/27 00:58:30;;;;;;;;;;;;;;;12.27;79.87;96710.16;30001;982;1876;-66
2021/08/27 00:59:01;;;;;;;;;;;;;;;12.27;79.64;96712.88;30001;982;1862;-66
2021/08/27 00:59:32;;;;;;;;;;;;;;;12.27;79.95;96715.63;30001;982;1871;-66
2021/08/27 01:00:04;;;;;;;;;;;;;;;12.26;80.05;96711.28;30001;983;1879;-66
2021/08/27 01:00:35;;;;;;;;;;;;;;;12.26;79.83;96714.00;30001;983;1875;-66
2021/08/27 01:01:06;;;;;;;;;;;;;;;12.27;79.96;96710.16;30001;983;1879;-65
2021/08/27 01:01:37;;;;;;;;;;;;;;;12.26;79.95;96717.53;30001;983;1875;-65
2021/08/27 01:02:08;;;;;;;;;;;;;;;12.26;80.08;96711.28;30001;983;1879;-66
2021/08/27 01:02:38;;;;;;;;;;;;;;;12.26;80.21;96703.94;30001;983;1875;-65
2021/08/27 01:03:10;;;;;;;;;;;;;;;12.27;79.88;96713.69;30001;983;1879;-65
2021/08/27 01:03:41;;;;;;;;;;;;;;;12.26;79.94;96714.81;30001;983;1858;-65
2021/08/27 01:04:13;;;;;;;;;;;;;;;12.27;79.72;96712.88;30001;983;1875;-66
2021/08/27 01:04:46;;;;;;;;;;;;;;;12.27;79.82;96712.88;30001;983;1875;-65
2021/08/27 01:05:16;;;;;;;;;;;;;;;12.26;80.04;96714.81;30001;982;1862;-66
2021/08/27 01:05:51;;;;;;;;;;;;;;;12.26;80.05;96714.00;30001;982;1871;-64
2021/08/27 01:06:39;;;;;;;;;;;;;;;12.25;80.25;96717.84;30001;982;1880;-64
2021/08/27 01:07:13;;;;;;;;;;;;;;;12.26;80.17;96708.56;30001;982;1876;-63
2021/08/27 01:08:04;;;;;;;;;;;;;;;12.26;80.29;96714.00;30001;983;1879;-64
2021/08/27 01:08:37;;;;;;;;;;;;;;;12.26;80.29;96711.28;30001;983;1853;-64
2021/08/27 01:09:36;;;;;;;;;;;;;;;12.25;79.98;96717.84;30001;983;1857;-65
2021/08/27 01:10:23;;;;;;;;;;;;;;;12.25;80.39;96715.13;30001;983;1871;-58
2021/08/27 01:11:14;;;;;;;;;;;;;;;12.25;80.10;96717.84;30001;983;1879;-63
2021/08/27 01:11:52;;;;;;;;;;;;;;;12.27;79.78;96710.16;30001;983;1871;-63
2021/08/27 01:12:29;;;;;;;;;;;;;;;12.29;79.70;96718.84;30001;983;1880;-63
2021/08/27 01:13:32;;;;;;;;;;;;;;;12.29;79.51;96713.38;30001;982;1858;-63
2021/08/27 01:14:05;;;;;;;;;;;;;;;12.30;79.67;96717.72;30001;982;1871;-62
2021/08/27 01:14:43;;;;;;;;;;;;;;;12.30;79.73;96717.72;30001;982;1858;-65
2021/08/27 01:15:17;;;;;;;;;;;;;;;12.29;79.56;96714.19;30001;983;1875;-65
2021/08/27 01:15:59;;;;;;;;;;;;;;;12.30;79.81;96715.00;30001;983;1875;-66
2021/08/27 01:16:34;;;;;;;;;;;;;;;12.29;79.92;96714.19;30001;983;1879;-65
2021/08/27 01:17:12;;;;;;;;;;;;;;;12.29;79.78;96716.13;30001;983;1875;-64
2021/08/27 01:17:53;;;;;;;;;;;;;;;12.30;79.65;96715.00;30001;983;1879;-66
2021/08/27 01:18:44;;;;;;;;;;;;;;;12.29;79.35;96713.38;30001;983;1857;-64
2021/08/27 01:19:34;;;;;;;;;;;;;;;12.29;79.62;96707.94;30001;983;1875;-58
2021/08/27 01:20:23;;;;;;;;;;;;;;;12.28;80.03;96715.31;30001;982;1875;-64
2021/08/27 01:21:13;;;;;;;;;;;;;;;12.27;79.73;96713.69;30001;982;1880;-64
2021/08/27 01:22:02;;;;;;;;;;;;;;;12.27;79.68;96705.53;30001;982;1871;-64
2021/08/27 01:23:02;;;;;;;;;;;;;;;12.28;79.43;96707.16;30001;982;1871;-65
2021/08/27 01:23:40;;;;;;;;;;;;;;;12.29;79.53;96705.22;30001;983;1853;-65
2021/08/27 01:24:12;;;;;;;;;;;;;;;12.29;79.58;96707.94;30001;983;1875;-64
2021/08/27 01:24:46;;;;;;;;;;;;;;;12.29;79.78;96710.66;30001;983;1875;-65
2021/08/27 01:25:18;;;;;;;;;;;;;;;12.28;80.02;96706.34;30001;983;1880;-65
2021/08/27 01:25:53;;;;;;;;;;;;;;;12.27;79.79;96704.72;30001;983;1875;-65
2021/08/27 01:26:30;;;;;;;;;;;;;;;12.26;80.11;96698.47;30001;983;1880;-64
2021/08/27 01:27:03;;;;;;;;;;;;;;;12.26;79.62;96703.13;30001;982;1875;-64
2021/08/27 01:27:35;;;;;;;;;;;;;;;12.26;80.01;96697.69;30001;982;1880;-65
2021/08/27 01:28:07;;;;;;;;;;;;;;;12.27;79.82;96702.00;30001;982;1876;-64
2021/08/27 01:28:42;;;;;;;;;;;;;;;12.27;79.73;96704.72;30001;982;1862;-65
2021/08/27 01:29:15;;;;;;;;;;;;;;;12.27;79.63;96704.72;30001;982;1871;-64
2021/08/27 01:30:11;;;;;;;;;;;;;;;12.27;80.04;96707.44;30001;982;1863;-65
2021/08/27 01:30:48;;;;;;;;;;;;;;;12.27;80.49;96710.97;30001;983;1866;-65
2021/08/27 01:31:39;;;;;;;;;;;;;;;12.26;79.99;96714.81;30001;983;1879;-65
2021/08/27 01:32:16;;;;;;;;;;;;;;;12.27;80.29;96710.16;30001;983;1871;-64
2021/08/27 01:32:57;;;;;;;;;;;;;;;12.25;80.32;96701.50;30001;983;1880;-64
2021/08/27 01:33:30;;;;;;;;;;;;;;;12.26;79.92;96706.66;30001;983;1875;-64
2021/08/27 01:34:33;;;;;;;;;;;;;;;12.26;80.11;96709.37;30001;983;1880;-63
2021/08/27 01:35:04;;;;;;;;;;;;;;;12.31;79.73;96708.44;30001;982;1853;-63
2021/08/27 01:35:36;;;;;;;;;;;;;;;12.32;79.29;96707.34;30001;982;1876;-65
2021/08/27 01:36:08;;;;;;;;;;;;;;;12.31;79.56;96705.72;30001;982;1876;-64
2021/08/27 01:36:40;;;;;;;;;;;;;;;12.30;80.06;96704.91;30001;982;1880;-65
2021/08/27 01:37:13;;;;;;;;;;;;;;;12.29;80.19;96705.22;30001;982;1876;-65
2021/08/27 01:37:47;;;;;;;;;;;;;;;12.30;79.89;96706.84;30001;982;1880;-65
2021/08/27 01:38:20;;;;;;;;;;;;;;;12.29;79.67;96705.22;30001;983;1875;-66
2021/08/27 01:38:52;;;;;;;;;;;;;;;12.30;79.95;96701.41;30001;983;1879;-64
2021/08/27 01:39:29;;;;;;;;;;;;;;;12.29;79.78;96700.59;30001;983;1875;-65
2021/08/27 01:40:01;;;;;;;;;;;;;;;12.31;79.70;96705.72;30001;983;1862;-65
2021/08/27 01:40:33;;;;;;;;;;;;;;;12.30;79.69;96713.09;30001;983;1871;-65
2021/08/27 01:41:07;;;;;;;;;;;;;;;12.31;79.87;96700.28;30001;983;1880;-65
2021/08/27 01:41:40;;;;;;;;;;;;;;;12.33;79.93;96698.06;30001;983;1875;-64
2021/08/27 01:42:11;;;;;;;;;;;;;;;12.32;79.89;96704.62;30001;982;1880;-66
2021/08/27 01:42:44;;;;;;;;;;;;;;;12.32;79.96;96701.91;30001;982;1875;-65
2021/08/27 01:43:16;;;;;;;;;;;;;;;12.32;79.89;96702.69;30001;982;1880;-65
2021/08/27 01:43:49;;;;;;;;;;;;;;;12.32;79.75;96699.97;30001;982;1876;-58
2021/08/27 01:44:22;;;;;;;;;;;;;;;12.32;79.80;96701.91;30001;982;1862;-65
2021/08/27 01:44:54;;;;;;;;;;;;;;;12.32;79.84;96707.34;30001;982;1871;-66
2021/08/27 01:45:25;;;;;;;;;;;;;;;12.32;79.85;96707.34;30001;983;1862;-65
2021/08/27 01:45:58;;;;;;;;;;;;;;;12.33;80.11;96707.03;30001;983;1871;-63
2021/08/27 01:46:32;;;;;;;;;;;;;;;12.33;79.87;96701.59;30001;983;1879;-65
2021/08/27 01:47:05;;;;;;;;;;;;;;;12.34;79.69;96700.47;30001;983;1875;-63
2021/08/27 01:47:37;;;;;;;;;;;;;;;12.35;79.94;96701.28;30001;983;1879;-65
2021/08/27 01:48:09;;;;;;;;;;;;;;;12.34;79.68;96703.19;30001;983;1875;-63
2021/08/27 01:48:40;;;;;;;;;;;;;;;12.33;80.04;96708.94;30001;983;1880;-64
2021/08/27 01:49:12;;;;;;;;;;;;;;;12.34;80.19;96702.38;30001;983;1858;-64
2021/08/27 01:49:47;;;;;;;;;;;;;;;12.32;79.90;96708.13;30001;982;1858;-65
2021/08/27 01:50:18;;;;;;;;;;;;;;;12.32;79.90;96696.44;30001;982;1875;-65
2021/08/27 01:50:54;;;;;;;;;;;;;;;12.32;80.25;96696.44;30001;982;1880;-64
2021/08/27 01:51:26;;;;;;;;;;;;;;;12.32;80.09;96696.44;30001;982;1876;-64
2021/08/27 01:51:58;;;;;;;;;;;;;;;12.32;80.32;96702.69;30001;982;1880;-65
2021/08/27 01:52:29;;;;;;;;;;;;;;;12.32;80.16;96704.62;30001;983;1875;-63
2021/08/27 01:53:00;;;;;;;;;;;;;;;12.32;80.28;96697.25;30001;983;1879;-66
2021/08/27 01:53:31;;;;;;;;;;;;;;;12.33;80.29;96703.50;30001;983;1875;-66
2021/08/27 01:54:04;;;;;;;;;;;;;;;12.33;80.17;96703.50;30001;983;1879;-65
2021/08/27 01:54:37;;;;;;;;;;;;;;;12.32;80.42;96701.91;30001;983;1858;-64
2021/08/27 01:55:08;;;;;;;;;;;;;;;12.32;80.31;96697.25;30001;983;1876;-65
2021/08/27 01:55:39;;;;;;;;;;;;;;;12.31;80.43;96700.28;30001;983;1875;-63
2021/08/27 01:56:11;;;;;;;;;;;;;;;12.33;80.41;96703.50;30001;983;1862;-65
2021/08/27 01:56:42;;;;;;;;;;;;;;;12.31;80.32;96703.00;30001;983;1871;-65
2021/08/27 01:57:14;;;;;;;;;;;;;;;12.31;80.58;96694.84;30001;982;1880;-64
2021/08/27 01:57:45;;;;;;;;;;;;;;;12.32;80.34;96699.97;30001;982;1858;-66
2021/08/27 01:58:16;;;;;;;;;;;;;;;12.34;80.38;96705.91;30001;982;1876;-64
2021/08/27 01:58:48;;;;;;;;;;;;;;;12.36;79.92;96702.88;30001;982;1876;-62
2021/08/27 01:59:20;;;;;;;;;;;;;;;12.36;79.86;96703.69;30001;982;1862;-64
2021/08/27 01:59:51;;;;;;;;;;;;;;;12.35;80.11;96701.28;30001;983;1870;-64
2021/08/27 02:00:22;;;;;;;;;;;;;;;12.36;80.09;96702.88;30001;983;1862;-65
2021/08/27 02:00:55;;;;;;;;;;;;;;;12.34;80.28;96702.38;30001;983;1871;-64
2021/08/27 02:01:28;;;;;;;;;;;;;;;12.34;80.62;96707.84;30001;983;1879;-65
2021/08/27 02:01:59;;;;;;;;;;;;;;;12.34;80.26;96705.12;30001;983;1875;-65
2021/08/27 02:02:30;;;;;;;;;;;;;;;12.33;80.21;96698.06;30001;983;1879;-64
2021/08/27 02:03:03;;;;;;;;;;;;;;;12.33;80.24;96698.06;30001;983;1858;-65
2021/08/27 02:03:34;;;;;;;;;;;;;;;12.34;80.26;96696.94;30001;983;1875;-65
2021/08/27 02:04:08;;;;;;;;;;;;;;;12.35;80.45;96698.56;30001;983;1875;-65
2021/08/27 02:04:40;;;;;;;;;;;;;;;12.35;80.38;96702.09;30001;982;1880;-64
2021/08/27 02:05:12;;;;;;;;;;;;;;;12.35;80.22;96704.81;30001;982;1858;-65
2021/08/27 02:05:43;;;;;;;;;;;;;;;12.37;80.04;96708.03;30001;982;1876;-65
2021/08/27 02:06:14;;;;;;;;;;;;;;;12.39;79.77;96705.00;30001;982;1875;-65
2021/08/27 02:06:46;;;;;;;;;;;;;;;12.41;79.94;96705.50;30001;982;1880;-65
2021/08/27 02:07:17;;;;;;;;;;;;;;;12.42;79.86;96707.09;30001;983;1875;-64
2021/08/27 02:07:49;;;;;;;;;;;;;;;12.40;80.23;96703.88;30001;983;1879;-66
2021/08/27 02:08:21;;;;;;;;;;;;;;;12.38;79.86;96706.91;30001;983;1875;-64
2021/08/27 02:08:52;;;;;;;;;;;;;;;12.39;80.28;96707.72;30001;983;1879;-65
2021/08/27 02:09:25;;;;;;;;;;;;;;;12.39;79.92;96705.00;30001;983;1857;-66
2021/08/27 02:09:57;;;;;;;;;;;;;;;12.40;80.26;96710.13;30001;983;1875;-65
2021/08/27 02:10:29;;;;;;;;;;;;;;;12.40;80.28;96710.13;30001;983;1857;-65
2021/08/27 02:11:01;;;;;;;;;;;;;;;12.39;79.94;96710.44;30001;983;1875;-65
2021/08/27 02:11:32;;;;;;;;;;;;;;;12.39;80.19;96707.72;30001;983;1875;-63
2021/08/27 02:12:04;;;;;;;;;;;;;;;12.38;80.18;96706.91;30001;983;1880;-63
2021/08/27 02:12:35;;;;;;;;;;;;;;;12.38;80.51;96704.19;30001;982;1875;-65
2021/08/27 02:13:06;;;;;;;;;;;;;;;12.39;80.30;96713.97;30001;982;1880;-64
2021/08/27 02:13:38;;;;;;;;;;;;;;;12.38;80.03;96706.91;30001;982;1875;-63
2021/08/27 02:14:09;;;;;;;;;;;;;;;12.39;80.24;96702.28;30001;982;1880;-64
2021/08/27 02:14:41;;;;;;;;;;;;;;;12.39;80.14;96705.00;30001;982;1858;-64
2021/08/27 02:15:12;;;;;;;;;;;;;;;12.43;79.93;96707.91;30001;983;1857;-65
2021/08/27 02:15:44;;;;;;;;;;;;;;;12.44;80.10;96706.78;30001;983;1875;-64
2021/08/27 02:16:16;;;;;;;;;;;;;;;12.44;79.96;96702.16;30001;983;1879;-64
2021/08/27 02:16:47;;;;;;;;;;;;;;;12.45;79.64;96714.66;30001;983;1875;-65
2021/08/27 02:17:18;;;;;;;;;;;;;;;12.45;79.91;96708.41;30001;983;1879;-65
2021/08/27 02:17:50;;;;;;;;;;;;;;;12.45;79.70;96705.69;30001;983;1858;-65
2021/08/27 02:18:21;;;;;;;;;;;;;;;12.44;79.98;96704.06;30001;983;1875;-62
2021/08/27 02:18:52;;;;;;;;;;;;;;;12.41;80.07;96698.13;30001;983;1875;-65
2021/08/27 02:19:23;;;;;;;;;;;;;;;12.41;79.90;96708.22;30001;983;1880;-65
2021/08/27 02:19:58;;;;;;;;;;;;;;;12.41;80.00;96710.94;30001;982;1858;-60
2021/08/27 02:20:29;;;;;;;;;;;;;;;12.40;80.05;96714.78;30001;982;1875;-66
2021/08/27 02:21:01;;;;;;;;;;;;;;;12.39;80.22;96707.72;30001;982;1875;-64
2021/08/27 02:21:34;;;;;;;;;;;;;;;12.39;80.85;96703.09;30001;982;1880;-63
2021/08/27 02:22:07;;;;;;;;;;;;;;;12.38;80.91;96712.34;30001;982;1875;-67
2021/08/27 02:22:39;;;;;;;;;;;;;;;12.36;80.90;96708.34;30001;983;1879;-65
2021/08/27 02:23:11;;;;;;;;;;;;;;;12.36;80.71;96708.34;30001;983;1875;-65
2021/08/27 02:23:42;;;;;;;;;;;;;;;12.36;81.16;96711.06;30001;983;1879;-66
2021/08/27 02:24:15;;;;;;;;;;;;;;;12.35;80.96;96712.16;30001;983;1875;-64
2021/08/27 02:24:50;;;;;;;;;;;;;;;12.35;80.77;96720.31;30001;983;1862;-59
2021/08/27 02:25:25;;;;;;;;;;;;;;;12.35;80.77;96712.16;30001;983;1853;-65
2021/08/27 02:25:57;;;;;;;;;;;;;;;12.35;81.14;96709.44;30001;983;1879;-65
2021/08/27 02:26:30;;;;;;;;;;;;;;;12.35;81.11;96712.16;30001;982;1875;-65
2021/08/27 02:27:01;;;;;;;;;;;;;;;12.35;80.94;96709.44;30001;982;1880;-65
2021/08/27 02:27:33;;;;;;;;;;;;;;;12.36;80.90;96716.50;30001;982;1858;-65
2021/08/27 02:28:05;;;;;;;;;;;;;;;12.35;80.86;96712.16;30001;982;1875;-64
2021/08/27 02:28:36;;;;;;;;;;;;;;;12.35;81.12;96712.97;30001;982;1875;-65
2021/08/27 02:29:07;;;;;;;;;;;;;;;12.35;80.88;96712.16;30001;982;1880;-65
2021/08/27 02:29:39;;;;;;;;;;;;;;;12.35;81.14;96701.28;30001;982;1875;-66
2021/08/27 02:30:11;;;;;;;;;;;;;;;12.36;80.80;96713.78;30001;983;1879;-66
2021/08/27 02:30:43;;;;;;;;;;;;;;;12.36;81.20;96713.78;30001;983;1874;-66
2021/08/27 02:31:14;;;;;;;;;;;;;;;12.35;80.95;96712.16;30001;983;1879;-58
2021/08/27 02:31:48;;;;;;;;;;;;;;;12.35;81.23;96709.44;30001;983;1875;-65
2021/08/27 02:32:19;;;;;;;;;;;;;;;12.35;80.81;96707.53;30001;983;1862;-65
2021/08/27 02:32:51;;;;;;;;;;;;;;;12.35;80.97;96706.72;30001;983;1871;-64
2021/08/27 02:33:23;;;;;;;;;;;;;;;12.34;80.80;96710.56;30001;983;1879;-65
2021/08/27 02:33:55;;;;;;;;;;;;;;;12.35;81.02;96714.88;30001;983;1875;-63
2021/08/27 02:34:27;;;;;;;;;;;;;;;12.35;81.41;96707.53;30001;982;1879;-64
2021/08/27 02:35:00;;;;;;;;;;;;;;;12.34;81.06;96711.34;30001;982;1876;-64
2021/08/27 02:35:32;;;;;;;;;;;;;;;12.34;81.34;96710.56;30001;982;1880;-66
2021/08/27 02:36:04;;;;;;;;;;;;;;;12.35;81.13;96707.53;30001;982;1875;-65
2021/08/27 02:36:36;;;;;;;;;;;;;;;12.35;81.36;96706.72;30001;982;1880;-65
2021/08/27 02:37:09;;;;;;;;;;;;;;;12.35;81.21;96707.53;30001;982;1875;-65
2021/08/27 02:37:41;;;;;;;;;;;;;;;12.37;81.03;96712.66;30001;983;1861;-66
2021/08/27 02:38:16;;;;;;;;;;;;;;;12.36;80.95;96713.78;30001;983;1870;-67
2021/08/27 02:38:49;;;;;;;;;;;;;;;12.36;81.04;96713.78;30001;983;1879;-66
2021/08/27 02:39:22;;;;;;;;;;;;;;;12.35;80.91;96717.59;30001;983;1875;-65
2021/08/27 02:39:53;;;;;;;;;;;;;;;12.35;81.34;96714.88;30001;983;1879;-63
2021/08/27 02:40:24;;;;;;;;;;;;;;;12.34;81.06;96710.56;30001;983;1875;-64
2021/08/27 02:40:54;;;;;;;;;;;;;;;12.34;80.95;96714.06;30001;983;1862;-64
2021/08/27 02:41:25;;;;;;;;;;;;;;;12.36;81.02;96714.56;30001;983;1871;-65
2021/08/27 02:41:57;;;;;;;;;;;;;;;12.38;81.42;96717.00;30001;982;1879;-65
2021/08/27 02:42:31;;;;;;;;;;;;;;;12.38;81.50;96717.00;30001;982;1875;-65
2021/08/27 02:43:02;;;;;;;;;;;;;;;12.39;81.11;96713.16;30001;982;1880;-65
2021/08/27 02:43:33;;;;;;;;;;;;;;;12.42;80.60;96712.53;30001;982;1875;-63
2021/08/27 02:44:04;;;;;;;;;;;;;;;12.48;80.23;96714.00;30001;982;1880;-63
2021/08/27 02:44:36;;;;;;;;;;;;;;;12.48;80.32;96711.28;30001;982;1875;-63
2021/08/27 02:45:07;;;;;;;;;;;;;;;12.47;79.97;96715.16;30001;983;1861;-63
2021/08/27 02:45:39;;;;;;;;;;;;;;;12.49;80.32;96717.53;30001;983;1853;-64
2021/08/27 02:46:09;;;;;;;;;;;;;;;12.47;80.37;96714.34;30001;983;1879;-64
2021/08/27 02:46:40;;;;;;;;;;;;;;;12.44;80.13;96713.03;30001;983;1875;-64
2021/08/27 02:47:11;;;;;;;;;;;;;;;12.46;80.53;96718.19;30001;983;1879;-67
2021/08/27 02:47:42;;;;;;;;;;;;;;;12.48;80.24;96711.28;30001;983;1857;-67
2021/08/27 02:48:13;;;;;;;;;;;;;;;12.49;80.11;96721.06;30001;983;1875;-65
2021/08/27 02:48:44;;;;;;;;;;;;;;;12.50;79.96;96719.94;30001;983;1875;-64
2021/08/27 02:49:15;;;;;;;;;;;;;;;12.50;80.13;96719.94;30001;982;1880;-64
2021/08/27 02:49:46;;;;;;;;;;;;;;;12.52;79.87;96708.75;30001;982;1875;-67
2021/08/27 02:50:21;;;;;;;;;;;;;;;12.51;79.87;96715.31;30001;982;1862;-64
2021/08/27 02:51:00;;;;;;;;;;;;;;;12.49;80.16;96710.16;30001;982;1871;-65
2021/08/27 02:51:38;;;;;;;;;;;;;;;12.46;80.28;96713.53;30001;982;1880;-65
2021/08/27 02:52:34;;;;;;;;;;;;;;;12.50;80.33;96709.06;30001;982;1858;-64
2021/08/27 02:53:08;;;;;;;;;;;;;;;12.50;80.02;96709.06;30001;983;1870;-64
2021/08/27 02:53:40;;;;;;;;;;;;;;;12.51;80.18;96713.38;30001;983;1875;-64
2021/08/27 02:54:15;;;;;;;;;;;;;;;12.50;79.94;96708.25;30001;983;1879;-65
2021/08/27 02:54:50;;;;;;;;;;;;;;;12.49;79.96;96707.44;30001;983;1875;-63
2021/08/27 02:55:29;;;;;;;;;;;;;;;12.48;80.50;96703.13;30001;983;1879;-59
2021/08/27 02:56:04;;;;;;;;;;;;;;;12.46;80.38;96710.81;30001;983;1857;-65
2021/08/27 02:56:37;;;;;;;;;;;;;;;12.45;80.31;96717.38;30001;983;1875;-62
2021/08/27 02:57:08;;;;;;;;;;;;;;;12.46;80.62;96716.25;30001;982;1875;-65